sensor_id;sensor_type;location;lat;lon;timestamp;temperature;humidity
75262;DHT22;63859;51.064;4.580;2022-11-20T00:03:38;4.40;99.90
75262;DHT22;63859;51.064;4.580;2022-11-20T00:06:06;4.40;99.90
75262;DHT22;63859;51.064;4.580;2022-11-20T00:08:32;4.40;99.90
75262;DHT22;63859;51.064;4.580;2022-11-20T00:11:03;4.50;99.90
75262;DHT22;63859;51.064;4.580;2022-11-20T00:13:29;4.60;99.90
75262;DHT22;63859;51.064;4.580;2022-11-20T00:15:59;4.60;99.90
75262;DHT22;63859;51.064;4.580;2022-11-20T00:18:26;4.60;99.90
75262;DHT22;63859;51.064;4.580;2022-11-20T00:20:51;4.60;99.90
75262;DHT22;63859;51.064;4.580;2022-11-20T00:23:17;4.60;99.90
75262;DHT22;63859;51.064;4.580;2022-11-20T00:25:42;4.50;99.90
75262;DHT22;63859;51.064;4.580;2022-11-20T00:28:08;4.50;99.90
75262;DHT22;63859;51.064;4.580;2022-11-20T00:30:33;4.50;99.90
75262;DHT22;63859;51.064;4.580;2022-11-20T00:32:59;4.50;99.90
75262;DHT22;63859;51.064;4.580;2022-11-20T00:35:25;4.40;99.90
75262;DHT22;63859;51.064;4.580;2022-11-20T00:37:50;4.40;99.90
75262;DHT22;63859;51.064;4.580;2022-11-20T00:40:16;4.40;99.90
75262;DHT22;63859;51.064;4.580;2022-11-20T00:42:41;4.50;99.90
75262;DHT22;63859;51.064;4.580;2022-11-20T00:45:07;4.50;99.90
75262;DHT22;63859;51.064;4.580;2022-11-20T00:47:33;4.60;99.90
75262;DHT22;63859;51.064;4.580;2022-11-20T00:49:58;4.70;99.90
75262;DHT22;63859;51.064;4.580;2022-11-20T00:52:24;4.60;99.90
75262;DHT22;63859;51.064;4.580;2022-11-20T00:54:50;4.70;99.90
75262;DHT22;63859;51.064;4.580;2022-11-20T00:57:15;4.70;99.90
75262;DHT22;63859;51.064;4.580;2022-11-20T00:59:41;4.70;99.90
75262;DHT22;63859;51.064;4.580;2022-11-20T01:02:06;4.60;99.90
75262;DHT22;63859;51.064;4.580;2022-11-20T01:04:32;4.60;99.90
75262;DHT22;63859;51.064;4.580;2022-11-20T01:06:57;4.50;99.90
75262;DHT22;63859;51.064;4.580;2022-11-20T01:09:23;4.50;99.90
75262;DHT22;63859;51.064;4.580;2022-11-20T01:11:49;4.50;99.90
75262;DHT22;63859;51.064;4.580;2022-11-20T01:14:19;4.50;99.90
75262;DHT22;63859;51.064;4.580;2022-11-20T01:16:49;4.50;99.90
75262;DHT22;63859;51.064;4.580;2022-11-20T01:19:18;4.50;99.90
75262;DHT22;63859;51.064;4.580;2022-11-20T01:21:46;4.60;99.90
75262;DHT22;63859;51.064;4.580;2022-11-20T01:24:14;4.60;99.90
75262;DHT22;63859;51.064;4.580;2022-11-20T01:26:41;4.70;99.90
75262;DHT22;63859;51.064;4.580;2022-11-20T01:29:31;4.70;99.90
75262;DHT22;63859;51.064;4.580;2022-11-20T01:31:56;4.70;99.90
75262;DHT22;63859;51.064;4.580;2022-11-20T01:34:22;4.70;99.90
75262;DHT22;63859;51.064;4.580;2022-11-20T01:36:48;4.70;99.90
75262;DHT22;63859;51.064;4.580;2022-11-20T01:39:21;4.60;99.90
75262;DHT22;63859;51.064;4.580;2022-11-20T01:41:49;4.60;99.90
75262;DHT22;63859;51.064;4.580;2022-11-20T01:50:04;4.40;99.90
75262;DHT22;63859;51.064;4.580;2022-11-20T01:55:43;4.30;99.90
75262;DHT22;63859;51.064;4.580;2022-11-20T01:58:11;4.20;99.90
75262;DHT22;63859;51.064;4.580;2022-11-20T02:00:37;4.10;99.90
75262;DHT22;63859;51.064;4.580;2022-11-20T02:03:16;4.20;99.90
75262;DHT22;63859;51.064;4.580;2022-11-20T02:06:01;4.20;99.90
75262;DHT22;63859;51.064;4.580;2022-11-20T02:08:29;4.20;99.90
75262;DHT22;63859;51.064;4.580;2022-11-20T02:10:55;4.10;99.90
75262;DHT22;63859;51.064;4.580;2022-11-20T02:13:21;4.10;99.90
75262;DHT22;63859;51.064;4.580;2022-11-20T02:16:12;4.10;99.90
75262;DHT22;63859;51.064;4.580;2022-11-20T02:18:39;4.00;99.90
75262;DHT22;63859;51.064;4.580;2022-11-20T02:21:35;3.90;99.90
75262;DHT22;63859;51.064;4.580;2022-11-20T02:24:04;3.90;99.90
75262;DHT22;63859;51.064;4.580;2022-11-20T02:26:34;3.80;99.90
75262;DHT22;63859;51.064;4.580;2022-11-20T02:29:03;3.80;99.90
75262;DHT22;63859;51.064;4.580;2022-11-20T02:31:33;3.70;99.90
75262;DHT22;63859;51.064;4.580;2022-11-20T02:33:59;3.70;99.90
75262;DHT22;63859;51.064;4.580;2022-11-20T02:36:27;3.70;99.90
75262;DHT22;63859;51.064;4.580;2022-11-20T02:38:53;3.70;99.90
75262;DHT22;63859;51.064;4.580;2022-11-20T02:41:19;3.70;99.90
75262;DHT22;63859;51.064;4.580;2022-11-20T02:43:45;3.70;99.90
75262;DHT22;63859;51.064;4.580;2022-11-20T02:46:10;3.60;99.90
75262;DHT22;63859;51.064;4.580;2022-11-20T02:48:36;3.70;99.90
75262;DHT22;63859;51.064;4.580;2022-11-20T02:51:02;3.60;99.90
75262;DHT22;63859;51.064;4.580;2022-11-20T02:53:28;3.60;99.90
75262;DHT22;63859;51.064;4.580;2022-11-20T02:55:53;3.60;99.90
75262;DHT22;63859;51.064;4.580;2022-11-20T02:58:19;3.50;99.90
75262;DHT22;63859;51.064;4.580;2022-11-20T03:00:45;3.60;99.90
75262;DHT22;63859;51.064;4.580;2022-11-20T03:03:10;3.60;99.90
75262;DHT22;63859;51.064;4.580;2022-11-20T03:05:36;3.60;99.90
75262;DHT22;63859;51.064;4.580;2022-11-20T03:08:01;3.60;99.90
75262;DHT22;63859;51.064;4.580;2022-11-20T03:10:27;3.70;99.90
75262;DHT22;63859;51.064;4.580;2022-11-20T03:12:54;3.70;99.90
75262;DHT22;63859;51.064;4.580;2022-11-20T03:15:21;3.70;99.90
75262;DHT22;63859;51.064;4.580;2022-11-20T03:17:47;3.70;99.90
75262;DHT22;63859;51.064;4.580;2022-11-20T03:20:13;3.70;99.90
75262;DHT22;63859;51.064;4.580;2022-11-20T03:22:38;3.70;99.90
75262;DHT22;63859;51.064;4.580;2022-11-20T03:25:04;3.70;99.90
75262;DHT22;63859;51.064;4.580;2022-11-20T03:27:36;3.70;99.90
75262;DHT22;63859;51.064;4.580;2022-11-20T03:30:01;3.70;99.90
75262;DHT22;63859;51.064;4.580;2022-11-20T03:32:27;3.70;99.90
75262;DHT22;63859;51.064;4.580;2022-11-20T03:34:53;3.60;99.90
75262;DHT22;63859;51.064;4.580;2022-11-20T03:37:18;3.70;99.90
75262;DHT22;63859;51.064;4.580;2022-11-20T03:39:44;3.60;99.90
75262;DHT22;63859;51.064;4.580;2022-11-20T03:42:09;3.60;99.90
75262;DHT22;63859;51.064;4.580;2022-11-20T03:44:55;3.60;99.90
75262;DHT22;63859;51.064;4.580;2022-11-20T03:47:21;3.40;99.90
75262;DHT22;63859;51.064;4.580;2022-11-20T03:49:46;3.40;99.90
75262;DHT22;63859;51.064;4.580;2022-11-20T03:52:12;3.40;99.90
75262;DHT22;63859;51.064;4.580;2022-11-20T03:54:37;3.30;99.90
75262;DHT22;63859;51.064;4.580;2022-11-20T03:57:03;3.30;99.90
75262;DHT22;63859;51.064;4.580;2022-11-20T03:59:29;3.30;99.90
75262;DHT22;63859;51.064;4.580;2022-11-20T04:01:54;3.30;99.90
75262;DHT22;63859;51.064;4.580;2022-11-20T04:04:20;3.30;99.90
75262;DHT22;63859;51.064;4.580;2022-11-20T04:06:45;3.30;99.90
75262;DHT22;63859;51.064;4.580;2022-11-20T04:09:11;3.30;99.90
75262;DHT22;63859;51.064;4.580;2022-11-20T04:11:39;3.30;99.90
75262;DHT22;63859;51.064;4.580;2022-11-20T04:14:06;3.30;99.90
75262;DHT22;63859;51.064;4.580;2022-11-20T04:16:34;3.30;99.90
75262;DHT22;63859;51.064;4.580;2022-11-20T04:19:03;3.40;99.90
75262;DHT22;63859;51.064;4.580;2022-11-20T04:21:30;3.50;99.90
75262;DHT22;63859;51.064;4.580;2022-11-20T04:23:56;3.40;99.90
75262;DHT22;63859;51.064;4.580;2022-11-20T04:26:23;3.40;99.90
75262;DHT22;63859;51.064;4.580;2022-11-20T04:28:49;3.50;99.90
75262;DHT22;63859;51.064;4.580;2022-11-20T04:31:17;3.40;99.90
75262;DHT22;63859;51.064;4.580;2022-11-20T04:33:43;3.50;99.90
75262;DHT22;63859;51.064;4.580;2022-11-20T04:36:15;3.50;99.90
75262;DHT22;63859;51.064;4.580;2022-11-20T04:38:41;3.60;99.90
75262;DHT22;63859;51.064;4.580;2022-11-20T04:41:21;3.60;99.90
75262;DHT22;63859;51.064;4.580;2022-11-20T04:43:52;3.60;99.90
75262;DHT22;63859;51.064;4.580;2022-11-20T04:46:19;3.70;99.90
75262;DHT22;63859;51.064;4.580;2022-11-20T04:48:46;3.70;99.90
75262;DHT22;63859;51.064;4.580;2022-11-20T04:51:12;3.70;99.90
75262;DHT22;63859;51.064;4.580;2022-11-20T04:53:38;3.70;99.90
75262;DHT22;63859;51.064;4.580;2022-11-20T04:56:06;3.80;99.90
75262;DHT22;63859;51.064;4.580;2022-11-20T04:58:33;3.70;99.90
75262;DHT22;63859;51.064;4.580;2022-11-20T05:01:10;3.70;99.90
75262;DHT22;63859;51.064;4.580;2022-11-20T05:03:37;3.70;99.90
75262;DHT22;63859;51.064;4.580;2022-11-20T05:06:04;3.70;99.90
75262;DHT22;63859;51.064;4.580;2022-11-20T05:08:31;3.70;99.90
75262;DHT22;63859;51.064;4.580;2022-11-20T05:11:05;3.70;99.90
75262;DHT22;63859;51.064;4.580;2022-11-20T05:13:31;3.70;99.90
75262;DHT22;63859;51.064;4.580;2022-11-20T05:16:04;3.80;99.90
75262;DHT22;63859;51.064;4.580;2022-11-20T05:18:30;3.70;99.90
75262;DHT22;63859;51.064;4.580;2022-11-20T05:20:59;3.70;99.90
75262;DHT22;63859;51.064;4.580;2022-11-20T05:23:25;3.70;99.90
75262;DHT22;63859;51.064;4.580;2022-11-20T05:25:55;3.70;99.90
75262;DHT22;63859;51.064;4.580;2022-11-20T05:28:21;3.70;99.90
75262;DHT22;63859;51.064;4.580;2022-11-20T05:30:47;3.70;99.90
75262;DHT22;63859;51.064;4.580;2022-11-20T05:33:13;3.70;99.90
75262;DHT22;63859;51.064;4.580;2022-11-20T05:35:39;3.70;99.90
75262;DHT22;63859;51.064;4.580;2022-11-20T05:38:04;3.70;99.90
75262;DHT22;63859;51.064;4.580;2022-11-20T05:40:30;3.70;99.90
75262;DHT22;63859;51.064;4.580;2022-11-20T05:42:55;3.80;99.90
75262;DHT22;63859;51.064;4.580;2022-11-20T05:45:21;3.80;99.90
75262;DHT22;63859;51.064;4.580;2022-11-20T05:47:46;3.80;99.90
75262;DHT22;63859;51.064;4.580;2022-11-20T05:50:13;3.80;99.90
75262;DHT22;63859;51.064;4.580;2022-11-20T05:52:40;3.80;99.90
75262;DHT22;63859;51.064;4.580;2022-11-20T05:55:06;3.90;99.90
75262;DHT22;63859;51.064;4.580;2022-11-20T05:57:32;3.90;99.90
75262;DHT22;63859;51.064;4.580;2022-11-20T05:59:57;4.00;99.90
75262;DHT22;63859;51.064;4.580;2022-11-20T06:02:23;3.90;99.90
75262;DHT22;63859;51.064;4.580;2022-11-20T06:04:49;3.90;99.90
75262;DHT22;63859;51.064;4.580;2022-11-20T06:07:14;3.90;99.90
75262;DHT22;63859;51.064;4.580;2022-11-20T06:09:40;3.90;99.90
75262;DHT22;63859;51.064;4.580;2022-11-20T06:12:06;3.90;99.90
75262;DHT22;63859;51.064;4.580;2022-11-20T06:14:32;3.90;99.90
75262;DHT22;63859;51.064;4.580;2022-11-20T06:16:58;3.90;99.90
75262;DHT22;63859;51.064;4.580;2022-11-20T06:19:24;3.80;99.90
75262;DHT22;63859;51.064;4.580;2022-11-20T06:21:49;3.80;99.90
75262;DHT22;63859;51.064;4.580;2022-11-20T06:24:15;3.80;99.90
75262;DHT22;63859;51.064;4.580;2022-11-20T06:26:41;3.70;99.90
75262;DHT22;63859;51.064;4.580;2022-11-20T06:29:07;3.80;99.90
75262;DHT22;63859;51.064;4.580;2022-11-20T06:31:33;3.80;99.90
75262;DHT22;63859;51.064;4.580;2022-11-20T06:34:01;3.90;99.90
75262;DHT22;63859;51.064;4.580;2022-11-20T06:36:27;3.80;99.90
75262;DHT22;63859;51.064;4.580;2022-11-20T06:38:52;3.80;99.90
75262;DHT22;63859;51.064;4.580;2022-11-20T06:41:20;3.80;99.90
75262;DHT22;63859;51.064;4.580;2022-11-20T06:43:46;3.90;99.90
75262;DHT22;63859;51.064;4.580;2022-11-20T06:46:13;3.80;99.90
75262;DHT22;63859;51.064;4.580;2022-11-20T06:48:39;3.80;99.90
75262;DHT22;63859;51.064;4.580;2022-11-20T06:51:07;3.80;99.90
75262;DHT22;63859;51.064;4.580;2022-11-20T06:53:33;3.60;99.90
75262;DHT22;63859;51.064;4.580;2022-11-20T06:55:59;3.70;99.90
75262;DHT22;63859;51.064;4.580;2022-11-20T06:58:27;3.80;99.90
75262;DHT22;63859;51.064;4.580;2022-11-20T07:00:53;3.80;99.90
75262;DHT22;63859;51.064;4.580;2022-11-20T07:03:19;3.90;99.90
75262;DHT22;63859;51.064;4.580;2022-11-20T07:05:44;3.90;99.90
75262;DHT22;63859;51.064;4.580;2022-11-20T07:08:11;3.80;99.90
75262;DHT22;63859;51.064;4.580;2022-11-20T07:10:37;3.70;99.90
75262;DHT22;63859;51.064;4.580;2022-11-20T07:13:03;3.80;99.90
75262;DHT22;63859;51.064;4.580;2022-11-20T07:15:29;3.80;99.90
75262;DHT22;63859;51.064;4.580;2022-11-20T07:17:55;3.80;99.90
75262;DHT22;63859;51.064;4.580;2022-11-20T07:20:23;3.80;99.90
75262;DHT22;63859;51.064;4.580;2022-11-20T07:22:56;3.80;99.90
75262;DHT22;63859;51.064;4.580;2022-11-20T07:25:25;3.90;99.90
75262;DHT22;63859;51.064;4.580;2022-11-20T07:27:51;3.90;99.90
75262;DHT22;63859;51.064;4.580;2022-11-20T07:30:18;3.80;99.90
75262;DHT22;63859;51.064;4.580;2022-11-20T07:32:47;3.90;99.90
75262;DHT22;63859;51.064;4.580;2022-11-20T07:35:15;3.90;99.90
75262;DHT22;63859;51.064;4.580;2022-11-20T07:37:41;4.00;99.90
75262;DHT22;63859;51.064;4.580;2022-11-20T07:40:07;3.90;99.90
75262;DHT22;63859;51.064;4.580;2022-11-20T07:42:33;3.90;99.90
75262;DHT22;63859;51.064;4.580;2022-11-20T07:44:58;3.90;99.90
75262;DHT22;63859;51.064;4.580;2022-11-20T07:47:24;3.90;99.90
75262;DHT22;63859;51.064;4.580;2022-11-20T07:49:50;4.00;99.90
75262;DHT22;63859;51.064;4.580;2022-11-20T07:52:15;4.00;99.90
75262;DHT22;63859;51.064;4.580;2022-11-20T07:54:41;4.00;99.90
75262;DHT22;63859;51.064;4.580;2022-11-20T07:57:06;4.00;99.90
75262;DHT22;63859;51.064;4.580;2022-11-20T07:59:32;4.00;99.90
75262;DHT22;63859;51.064;4.580;2022-11-20T08:01:58;4.00;99.90
75262;DHT22;63859;51.064;4.580;2022-11-20T08:04:23;4.00;99.90
75262;DHT22;63859;51.064;4.580;2022-11-20T08:06:49;4.00;99.90
75262;DHT22;63859;51.064;4.580;2022-11-20T08:09:15;4.10;99.90
75262;DHT22;63859;51.064;4.580;2022-11-20T08:11:40;4.10;99.90
75262;DHT22;63859;51.064;4.580;2022-11-20T08:14:24;4.10;99.90
75262;DHT22;63859;51.064;4.580;2022-11-20T08:16:51;4.10;99.90
75262;DHT22;63859;51.064;4.580;2022-11-20T08:19:17;4.10;99.90
75262;DHT22;63859;51.064;4.580;2022-11-20T08:21:44;4.20;99.90
75262;DHT22;63859;51.064;4.580;2022-11-20T08:24:10;4.20;99.90
75262;DHT22;63859;51.064;4.580;2022-11-20T08:26:37;4.30;99.90
75262;DHT22;63859;51.064;4.580;2022-11-20T08:29:04;4.30;99.90
75262;DHT22;63859;51.064;4.580;2022-11-20T08:31:29;4.40;99.90
75262;DHT22;63859;51.064;4.580;2022-11-20T08:33:56;4.40;99.90
75262;DHT22;63859;51.064;4.580;2022-11-20T08:36:22;4.50;99.90
75262;DHT22;63859;51.064;4.580;2022-11-20T08:38:52;4.50;99.90
75262;DHT22;63859;51.064;4.580;2022-11-20T08:41:19;4.50;99.90
75262;DHT22;63859;51.064;4.580;2022-11-20T08:44:05;4.50;99.90
75262;DHT22;63859;51.064;4.580;2022-11-20T08:46:37;4.60;99.90
75262;DHT22;63859;51.064;4.580;2022-11-20T08:49:08;4.60;99.90
75262;DHT22;63859;51.064;4.580;2022-11-20T08:51:35;4.70;99.90
75262;DHT22;63859;51.064;4.580;2022-11-20T08:54:01;4.70;99.90
75262;DHT22;63859;51.064;4.580;2022-11-20T08:56:27;4.70;99.90
75262;DHT22;63859;51.064;4.580;2022-11-20T08:58:53;4.70;99.90
75262;DHT22;63859;51.064;4.580;2022-11-20T09:01:19;4.70;99.90
75262;DHT22;63859;51.064;4.580;2022-11-20T09:03:45;4.80;99.90
75262;DHT22;63859;51.064;4.580;2022-11-20T09:06:11;4.80;99.90
75262;DHT22;63859;51.064;4.580;2022-11-20T09:08:36;4.80;99.90
75262;DHT22;63859;51.064;4.580;2022-11-20T09:11:03;4.80;99.90
75262;DHT22;63859;51.064;4.580;2022-11-20T09:13:29;4.90;99.90
75262;DHT22;63859;51.064;4.580;2022-11-20T09:16:01;4.90;99.90
75262;DHT22;63859;51.064;4.580;2022-11-20T09:18:28;4.80;99.90
75262;DHT22;63859;51.064;4.580;2022-11-20T09:21:01;4.90;99.90
75262;DHT22;63859;51.064;4.580;2022-11-20T09:23:31;4.90;99.90
75262;DHT22;63859;51.064;4.580;2022-11-20T09:25:57;4.90;99.90
75262;DHT22;63859;51.064;4.580;2022-11-20T09:28:25;5.00;99.90
75262;DHT22;63859;51.064;4.580;2022-11-20T09:30:51;4.90;99.90
75262;DHT22;63859;51.064;4.580;2022-11-20T09:33:17;5.00;99.90
75262;DHT22;63859;51.064;4.580;2022-11-20T09:35:43;5.20;99.90
75262;DHT22;63859;51.064;4.580;2022-11-20T09:38:09;5.10;99.90
75262;DHT22;63859;51.064;4.580;2022-11-20T09:40:38;5.10;99.90
75262;DHT22;63859;51.064;4.580;2022-11-20T09:43:21;5.20;99.90
75262;DHT22;63859;51.064;4.580;2022-11-20T09:46:01;5.20;99.90
75262;DHT22;63859;51.064;4.580;2022-11-20T09:48:38;5.20;99.90
75262;DHT22;63859;51.064;4.580;2022-11-20T09:54:15;5.20;99.90
75262;DHT22;63859;51.064;4.580;2022-11-20T09:56:44;5.30;99.90
75262;DHT22;63859;51.064;4.580;2022-11-20T09:59:29;5.30;99.90
75262;DHT22;63859;51.064;4.580;2022-11-20T10:01:56;5.30;99.90
75262;DHT22;63859;51.064;4.580;2022-11-20T10:04:24;5.30;99.90
75262;DHT22;63859;51.064;4.580;2022-11-20T10:08:11;5.40;99.90
75262;DHT22;63859;51.064;4.580;2022-11-20T10:10:25;5.40;99.90
75262;DHT22;63859;51.064;4.580;2022-11-20T10:13:49;5.50;99.90
75262;DHT22;63859;51.064;4.580;2022-11-20T10:23:54;5.60;99.90
75262;DHT22;63859;51.064;4.580;2022-11-20T10:26:44;5.60;99.90
75262;DHT22;63859;51.064;4.580;2022-11-20T10:29:19;5.60;99.90
75262;DHT22;63859;51.064;4.580;2022-11-20T10:31:59;5.70;99.90
75262;DHT22;63859;51.064;4.580;2022-11-20T10:37:34;5.80;99.90
75262;DHT22;63859;51.064;4.580;2022-11-20T10:40:20;5.90;99.90
75262;DHT22;63859;51.064;4.580;2022-11-20T10:42:54;5.90;99.90
75262;DHT22;63859;51.064;4.580;2022-11-20T10:50:37;6.10;99.90
75262;DHT22;63859;51.064;4.580;2022-11-20T10:55:53;6.20;99.90
75262;DHT22;63859;51.064;4.580;2022-11-20T10:58:43;6.30;99.90
75262;DHT22;63859;51.064;4.580;2022-11-20T11:01:19;6.50;99.90
75262;DHT22;63859;51.064;4.580;2022-11-20T11:03:47;6.40;99.90
75262;DHT22;63859;51.064;4.580;2022-11-20T11:08:47;6.60;99.90
75262;DHT22;63859;51.064;4.580;2022-11-20T11:11:27;6.60;99.90
75262;DHT22;63859;51.064;4.580;2022-11-20T11:14:13;6.70;99.90
75262;DHT22;63859;51.064;4.580;2022-11-20T11:16:54;6.60;99.90
75262;DHT22;63859;51.064;4.580;2022-11-20T11:19:20;6.80;99.90
75262;DHT22;63859;51.064;4.580;2022-11-20T11:21:54;6.80;99.90
75262;DHT22;63859;51.064;4.580;2022-11-20T11:24:28;6.90;99.90
75262;DHT22;63859;51.064;4.580;2022-11-20T11:27:02;7.00;99.90
75262;DHT22;63859;51.064;4.580;2022-11-20T11:29:32;7.00;99.90
75262;DHT22;63859;51.064;4.580;2022-11-20T11:34:34;7.10;99.90
75262;DHT22;63859;51.064;4.580;2022-11-20T11:37:00;7.20;99.90
75262;DHT22;63859;51.064;4.580;2022-11-20T11:39:29;7.20;99.90
75262;DHT22;63859;51.064;4.580;2022-11-20T11:41:55;7.30;99.90
75262;DHT22;63859;51.064;4.580;2022-11-20T11:47:23;7.40;99.90
75262;DHT22;63859;51.064;4.580;2022-11-20T11:53:28;7.50;99.90
75262;DHT22;63859;51.064;4.580;2022-11-20T11:55:54;7.50;99.90
75262;DHT22;63859;51.064;4.580;2022-11-20T12:01:18;7.60;99.90
75262;DHT22;63859;51.064;4.580;2022-11-20T12:03:59;7.60;99.90
75262;DHT22;63859;51.064;4.580;2022-11-20T12:06:28;7.70;99.90
75262;DHT22;63859;51.064;4.580;2022-11-20T12:09:01;7.80;99.90
75262;DHT22;63859;51.064;4.580;2022-11-20T12:11:47;7.80;99.90
75262;DHT22;63859;51.064;4.580;2022-11-20T12:14:34;7.80;99.90
75262;DHT22;63859;51.064;4.580;2022-11-20T12:17:02;7.90;99.90
75262;DHT22;63859;51.064;4.580;2022-11-20T12:19:30;7.90;99.90
75262;DHT22;63859;51.064;4.580;2022-11-20T12:30:16;8.10;99.90
75262;DHT22;63859;51.064;4.580;2022-11-20T12:52:57;8.10;99.90
75262;DHT22;63859;51.064;4.580;2022-11-20T12:58:18;8.00;99.90
75262;DHT22;63859;51.064;4.580;2022-11-20T13:03:58;7.90;99.90
75262;DHT22;63859;51.064;4.580;2022-11-20T13:06:26;7.90;99.90
75262;DHT22;63859;51.064;4.580;2022-11-20T13:08:55;7.80;99.90
75262;DHT22;63859;51.064;4.580;2022-11-20T13:19:33;7.80;99.90
75262;DHT22;63859;51.064;4.580;2022-11-20T13:22:01;7.70;99.90
75262;DHT22;63859;51.064;4.580;2022-11-20T13:24:28;7.70;99.90
75262;DHT22;63859;51.064;4.580;2022-11-20T13:29:37;7.70;99.90
75262;DHT22;63859;51.064;4.580;2022-11-20T13:32:06;7.80;99.90
75262;DHT22;63859;51.064;4.580;2022-11-20T13:34:38;7.80;99.90
75262;DHT22;63859;51.064;4.580;2022-11-20T13:37:03;7.80;99.90
75262;DHT22;63859;51.064;4.580;2022-11-20T13:39:36;7.80;99.90
75262;DHT22;63859;51.064;4.580;2022-11-20T13:42:26;7.80;99.90
75262;DHT22;63859;51.064;4.580;2022-11-20T13:45:01;7.70;99.90
75262;DHT22;63859;51.064;4.580;2022-11-20T13:47:28;7.70;99.90
75262;DHT22;63859;51.064;4.580;2022-11-20T13:49:55;7.70;99.90
75262;DHT22;63859;51.064;4.580;2022-11-20T13:52:36;7.70;99.90
75262;DHT22;63859;51.064;4.580;2022-11-20T13:55:23;7.60;99.90
75262;DHT22;63859;51.064;4.580;2022-11-20T14:00:48;7.60;99.90
75262;DHT22;63859;51.064;4.580;2022-11-20T14:03:19;7.60;99.90
75262;DHT22;63859;51.064;4.580;2022-11-20T14:05:55;7.60;99.90
75262;DHT22;63859;51.064;4.580;2022-11-20T14:11:48;7.50;99.90
75262;DHT22;63859;51.064;4.580;2022-11-20T14:14:13;7.50;99.90
75262;DHT22;63859;51.064;4.580;2022-11-20T14:16:40;7.60;99.90
75262;DHT22;63859;51.064;4.580;2022-11-20T14:22:07;7.50;99.90
75262;DHT22;63859;51.064;4.580;2022-11-20T14:24:33;7.60;99.90
75262;DHT22;63859;51.064;4.580;2022-11-20T14:26:59;7.60;99.90
75262;DHT22;63859;51.064;4.580;2022-11-20T14:29:36;7.60;99.90
75262;DHT22;63859;51.064;4.580;2022-11-20T14:32:03;7.60;99.90
75262;DHT22;63859;51.064;4.580;2022-11-20T14:34:31;7.60;99.90
75262;DHT22;63859;51.064;4.580;2022-11-20T14:37:04;7.60;99.90
75262;DHT22;63859;51.064;4.580;2022-11-20T14:39:36;7.60;99.90
75262;DHT22;63859;51.064;4.580;2022-11-20T14:42:10;7.60;99.90
75262;DHT22;63859;51.064;4.580;2022-11-20T14:44:39;7.60;99.90
75262;DHT22;63859;51.064;4.580;2022-11-20T14:47:08;7.70;99.90
75262;DHT22;63859;51.064;4.580;2022-11-20T14:49:37;7.60;99.90
75262;DHT22;63859;51.064;4.580;2022-11-20T14:52:15;7.60;99.90
75262;DHT22;63859;51.064;4.580;2022-11-20T14:54:59;7.60;99.90
75262;DHT22;63859;51.064;4.580;2022-11-20T14:57:32;7.60;99.90
75262;DHT22;63859;51.064;4.580;2022-11-20T15:02:41;7.60;99.90
75262;DHT22;63859;51.064;4.580;2022-11-20T15:05:07;7.70;99.90
75262;DHT22;63859;51.064;4.580;2022-11-20T15:07:35;7.60;99.90
75262;DHT22;63859;51.064;4.580;2022-11-20T15:10:07;7.70;99.90
75262;DHT22;63859;51.064;4.580;2022-11-20T15:12:40;7.70;99.90
75262;DHT22;63859;51.064;4.580;2022-11-20T15:15:12;7.70;99.90
75262;DHT22;63859;51.064;4.580;2022-11-20T15:17:40;7.70;99.90
75262;DHT22;63859;51.064;4.580;2022-11-20T15:20:13;7.70;99.90
75262;DHT22;63859;51.064;4.580;2022-11-20T15:22:39;7.70;99.90
75262;DHT22;63859;51.064;4.580;2022-11-20T15:25:12;7.80;99.90
75262;DHT22;63859;51.064;4.580;2022-11-20T15:27:38;7.80;99.90
75262;DHT22;63859;51.064;4.580;2022-11-20T15:30:16;7.80;99.90
75262;DHT22;63859;51.064;4.580;2022-11-20T15:32:42;7.80;99.90
75262;DHT22;63859;51.064;4.580;2022-11-20T15:35:08;7.80;99.90
75262;DHT22;63859;51.064;4.580;2022-11-20T15:37:35;7.80;99.90
75262;DHT22;63859;51.064;4.580;2022-11-20T15:40:01;7.80;99.90
75262;DHT22;63859;51.064;4.580;2022-11-20T15:42:26;7.80;99.90
75262;DHT22;63859;51.064;4.580;2022-11-20T15:44:52;7.80;99.90
75262;DHT22;63859;51.064;4.580;2022-11-20T15:47:19;7.90;99.90
75262;DHT22;63859;51.064;4.580;2022-11-20T15:49:46;7.90;99.90
75262;DHT22;63859;51.064;4.580;2022-11-20T15:52:12;7.90;99.90
75262;DHT22;63859;51.064;4.580;2022-11-20T15:54:38;8.00;99.90
75262;DHT22;63859;51.064;4.580;2022-11-20T15:57:03;8.00;99.90
75262;DHT22;63859;51.064;4.580;2022-11-20T15:59:29;7.90;99.90
75262;DHT22;63859;51.064;4.580;2022-11-20T16:01:55;8.00;99.90
75262;DHT22;63859;51.064;4.580;2022-11-20T16:04:20;8.00;99.90
75262;DHT22;63859;51.064;4.580;2022-11-20T16:06:46;8.00;99.90
75262;DHT22;63859;51.064;4.580;2022-11-20T16:09:12;8.10;99.90
75262;DHT22;63859;51.064;4.580;2022-11-20T16:11:37;8.10;99.90
75262;DHT22;63859;51.064;4.580;2022-11-20T16:14:04;8.10;99.90
75262;DHT22;63859;51.064;4.580;2022-11-20T16:16:48;8.20;99.90
75262;DHT22;63859;51.064;4.580;2022-11-20T16:19:14;8.20;99.90
75262;DHT22;63859;51.064;4.580;2022-11-20T16:21:41;8.20;99.90
75262;DHT22;63859;51.064;4.580;2022-11-20T16:24:09;8.20;99.90
75262;DHT22;63859;51.064;4.580;2022-11-20T16:26:36;8.30;99.90
75262;DHT22;63859;51.064;4.580;2022-11-20T16:29:03;8.20;99.90
75262;DHT22;63859;51.064;4.580;2022-11-20T16:31:29;8.30;99.90
75262;DHT22;63859;51.064;4.580;2022-11-20T16:33:56;8.20;99.90
75262;DHT22;63859;51.064;4.580;2022-11-20T16:36:24;8.30;99.90
75262;DHT22;63859;51.064;4.580;2022-11-20T16:38:54;8.40;99.90
75262;DHT22;63859;51.064;4.580;2022-11-20T16:41:20;8.20;99.90
75262;DHT22;63859;51.064;4.580;2022-11-20T16:43:51;8.20;99.90
75262;DHT22;63859;51.064;4.580;2022-11-20T16:46:19;8.20;99.90
75262;DHT22;63859;51.064;4.580;2022-11-20T16:49:25;8.20;99.90
75262;DHT22;63859;51.064;4.580;2022-11-20T16:51:44;8.20;99.90
75262;DHT22;63859;51.064;4.580;2022-11-20T16:54:09;8.20;99.90
75262;DHT22;63859;51.064;4.580;2022-11-20T16:56:35;8.20;99.90
75262;DHT22;63859;51.064;4.580;2022-11-20T16:59:02;8.20;99.90
75262;DHT22;63859;51.064;4.580;2022-11-20T17:01:29;8.10;99.90
75262;DHT22;63859;51.064;4.580;2022-11-20T17:03:56;8.10;99.90
75262;DHT22;63859;51.064;4.580;2022-11-20T17:06:24;8.10;99.90
75262;DHT22;63859;51.064;4.580;2022-11-20T17:08:52;8.10;99.90
75262;DHT22;63859;51.064;4.580;2022-11-20T17:11:18;8.10;99.90
75262;DHT22;63859;51.064;4.580;2022-11-20T17:13:44;8.20;99.90
75262;DHT22;63859;51.064;4.580;2022-11-20T17:16:20;8.20;99.90
75262;DHT22;63859;51.064;4.580;2022-11-20T17:18:46;8.20;99.90
75262;DHT22;63859;51.064;4.580;2022-11-20T17:21:12;8.20;99.90
75262;DHT22;63859;51.064;4.580;2022-11-20T17:23:40;8.30;99.90
75262;DHT22;63859;51.064;4.580;2022-11-20T17:26:07;8.20;99.90
75262;DHT22;63859;51.064;4.580;2022-11-20T17:28:34;8.20;99.90
75262;DHT22;63859;51.064;4.580;2022-11-20T17:31:02;8.40;99.90
75262;DHT22;63859;51.064;4.580;2022-11-20T17:33:29;8.20;99.90
75262;DHT22;63859;51.064;4.580;2022-11-20T17:35:54;8.20;99.90
75262;DHT22;63859;51.064;4.580;2022-11-20T17:38:20;8.20;99.90
75262;DHT22;63859;51.064;4.580;2022-11-20T17:40:46;8.20;99.90